Time;durP1;ratioP1;P1;durP2;ratioP2;P2;SDS_P1;SDS_P2;PMS_P1;PMS_P2;Temp;Humidity;BMP_temperature;BMP_pressure;BME280_temperature;BME280_humidity;BME280_pressure;Samples;Min_cycle;Max_cycle;Signal;HPM_P1;HPM_P2
2022/10/07 00:01:17;;;;;;;;;;;12.60;96.00;;;;;;5075982;28;19917;-78
2022/10/07 00:03:43;;;;;;;;;;;12.60;96.00;;;;;;5077471;28;19977;-77
2022/10/07 00:06:13;;;;;;;;;;;12.50;96.30;;;;;;5074449;28;20290;-77
2022/10/07 00:08:39;;;;;;;;;;;12.60;95.70;;;;;;5071998;28;19921;-78
2022/10/07 00:11:06;;;;;;;;;;;12.60;96.10;;;;;;5075611;28;20572;-77
2022/10/07 00:13:32;;;;;;;;;;;12.50;96.20;;;;;;5066320;28;19912;-77
2022/10/07 00:16:10;;;;;;;;;;;12.50;96.20;;;;;;5058434;28;19965;-77
2022/10/07 00:18:36;;;;;;;;;;;12.50;96.10;;;;;;5078076;28;19916;-78
2022/10/07 00:21:06;;;;;;;;;;;12.60;95.50;;;;;;5076623;28;19916;-78
2022/10/07 00:23:32;;;;;;;;;;;12.70;95.20;;;;;;5060331;28;19916;-77
2022/10/07 00:26:02;;;;;;;;;;;12.60;95.30;;;;;;5064883;28;19961;-77
2022/10/07 00:28:29;;;;;;;;;;;12.40;95.80;;;;;;5069684;28;19923;-77
2022/10/07 00:30:58;;;;;;;;;;;12.50;96.00;;;;;;5072496;28;19956;-77
2022/10/07 00:33:24;;;;;;;;;;;12.50;96.20;;;;;;5046578;28;19970;-78
2022/10/07 00:35:50;;;;;;;;;;;12.50;96.00;;;;;;5038883;28;19968;-77
2022/10/07 00:38:15;;;;;;;;;;;12.60;96.00;;;;;;5054585;28;20386;-77
2022/10/07 00:40:41;;;;;;;;;;;12.50;96.10;;;;;;5049647;28;20008;-78
2022/10/07 00:43:19;;;;;;;;;;;12.60;95.90;;;;;;5041181;28;19913;-77
2022/10/07 00:45:45;;;;;;;;;;;12.70;95.60;;;;;;5057221;28;19921;-78
2022/10/07 00:48:11;;;;;;;;;;;12.80;95.40;;;;;;5059499;28;20389;-77
2022/10/07 00:50:36;;;;;;;;;;;12.60;95.80;;;;;;5053966;28;19916;-77
2022/10/07 00:53:02;;;;;;;;;;;12.50;96.20;;;;;;5045241;28;20020;-78
2022/10/07 00:55:28;;;;;;;;;;;12.60;96.50;;;;;;5047117;28;19916;-78
2022/10/07 00:57:57;;;;;;;;;;;12.60;96.20;;;;;;5057543;28;19940;-77
2022/10/07 01:00:23;;;;;;;;;;;12.50;96.30;;;;;;5055312;28;19955;-78
2022/10/07 01:02:49;;;;;;;;;;;12.70;95.90;;;;;;5047225;28;20374;-77
2022/10/07 01:05:15;;;;;;;;;;;12.70;95.80;;;;;;5055737;28;19940;-77
2022/10/07 01:07:41;;;;;;;;;;;12.60;96.20;;;;;;5060775;28;19955;-77
2022/10/07 01:10:08;;;;;;;;;;;12.60;96.10;;;;;;5047161;28;19971;-77
2022/10/07 01:12:42;;;;;;;;;;;12.60;95.80;;;;;;5052847;28;19998;-78
2022/10/07 01:15:26;;;;;;;;;;;12.60;95.70;;;;;;5061041;28;20615;-78
2022/10/07 01:18:10;;;;;;;;;;;12.50;95.50;;;;;;5051918;28;19913;-77
2022/10/07 01:20:43;;;;;;;;;;;12.50;95.80;;;;;;5056468;28;19947;-78
2022/10/07 01:23:27;;;;;;;;;;;12.30;96.50;;;;;;5059091;28;20385;-77
2022/10/07 01:26:10;;;;;;;;;;;12.30;96.80;;;;;;5042625;28;19916;-77
2022/10/07 01:28:38;;;;;;;;;;;12.10;96.90;;;;;;5051587;28;19912;-78
2022/10/07 01:31:06;;;;;;;;;;;12.10;97.20;;;;;;5044291;28;19925;-77
2022/10/07 01:33:32;;;;;;;;;;;12.10;97.20;;;;;;5052683;28;19917;-78
2022/10/07 01:36:13;;;;;;;;;;;12.00;97.60;;;;;;5053248;28;20460;-78
2022/10/07 01:38:41;;;;;;;;;;;11.90;98.10;;;;;;5043917;28;20415;-77
2022/10/07 01:41:09;;;;;;;;;;;11.80;98.30;;;;;;5059467;28;19987;-78
2022/10/07 01:43:36;;;;;;;;;;;11.70;98.30;;;;;;5047982;28;20453;-77
2022/10/07 01:46:03;;;;;;;;;;;11.50;98.70;;;;;;5050561;28;19928;-78
2022/10/07 01:48:30;;;;;;;;;;;11.50;99.40;;;;;;5054351;28;19926;-77
2022/10/07 01:50:58;;;;;;;;;;;11.50;99.60;;;;;;5058851;28;20394;-76
2022/10/07 01:53:27;;;;;;;;;;;11.30;99.80;;;;;;5061023;28;19959;-78
2022/10/07 01:55:55;;;;;;;;;;;11.30;99.90;;;;;;5053565;28;19917;-78
2022/10/07 01:58:23;;;;;;;;;;;11.10;99.90;;;;;;5044420;28;19917;-77
2022/10/07 02:01:05;;;;;;;;;;;11.20;99.90;;;;;;5049804;28;19991;-77
2022/10/07 02:03:53;;;;;;;;;;;11.20;99.90;;;;;;5069042;28;19912;-77
2022/10/07 02:06:24;;;;;;;;;;;11.10;99.90;;;;;;5080668;28;19913;-79
2022/10/07 02:08:51;;;;;;;;;;;11.00;99.90;;;;;;5082336;28;20643;-78
2022/10/07 02:11:20;;;;;;;;;;;11.00;99.90;;;;;;5079766;28;19960;-78
2022/10/07 02:13:49;;;;;;;;;;;10.90;99.90;;;;;;5065583;28;19991;-78
2022/10/07 02:16:17;;;;;;;;;;;10.90;99.90;;;;;;5062497;28;19923;-78
2022/10/07 02:18:47;;;;;;;;;;;10.90;99.90;;;;;;5077073;28;19969;-78
2022/10/07 02:21:13;;;;;;;;;;;10.90;99.90;;;;;;5082828;28;20078;-78
2022/10/07 02:23:40;;;;;;;;;;;10.80;99.90;;;;;;5060549;28;20003;-78
2022/10/07 02:26:06;;;;;;;;;;;10.80;99.90;;;;;;5091760;28;19920;-78
2022/10/07 02:28:34;;;;;;;;;;;10.70;99.90;;;;;;5074765;28;19919;-78
2022/10/07 02:31:01;;;;;;;;;;;10.70;99.90;;;;;;5075097;28;19924;-78
2022/10/07 02:33:27;;;;;;;;;;;10.70;99.90;;;;;;5072124;28;19934;-78
2022/10/07 02:35:56;;;;;;;;;;;10.80;99.90;;;;;;5069452;28;19916;-77
2022/10/07 02:38:22;;;;;;;;;;;10.80;99.90;;;;;;5065800;28;19917;-78
2022/10/07 02:40:54;;;;;;;;;;;10.80;99.90;;;;;;5071921;28;19931;-78
2022/10/07 02:43:27;;;;;;;;;;;10.80;99.90;;;;;;5074354;28;19913;-78
2022/10/07 02:46:07;;;;;;;;;;;10.90;99.90;;;;;;5073453;28;19969;-78
2022/10/07 02:48:36;;;;;;;;;;;11.10;99.90;;;;;;5074065;28;19995;-78
2022/10/07 02:51:05;;;;;;;;;;;11.10;99.90;;;;;;5079407;28;20018;-78
2022/10/07 02:53:31;;;;;;;;;;;11.20;99.90;;;;;;5080543;28;20015;-78
2022/10/07 02:56:01;;;;;;;;;;;11.20;99.90;;;;;;5078670;28;19908;-77
2022/10/07 02:58:26;;;;;;;;;;;11.30;99.90;;;;;;5083572;28;19923;-78
2022/10/07 03:00:56;;;;;;;;;;;11.20;99.90;;;;;;5077177;28;19920;-79
2022/10/07 03:03:23;;;;;;;;;;;11.20;99.90;;;;;;5056537;28;19913;-78
2022/10/07 03:05:49;;;;;;;;;;;11.10;99.90;;;;;;5054529;28;19928;-78
2022/10/07 03:08:15;;;;;;;;;;;11.00;99.90;;;;;;5059908;28;19917;-78
2022/10/07 03:10:41;;;;;;;;;;;10.90;99.90;;;;;;5058819;28;19921;-78
2022/10/07 03:13:06;;;;;;;;;;;10.80;99.90;;;;;;5056093;28;19920;-78
2022/10/07 03:15:34;;;;;;;;;;;10.70;99.90;;;;;;5062984;28;20019;-78
2022/10/07 03:17:59;;;;;;;;;;;10.60;99.90;;;;;;5059319;28;19913;-77
2022/10/07 03:20:25;;;;;;;;;;;10.50;99.90;;;;;;5060935;28;19919;-78
2022/10/07 03:22:51;;;;;;;;;;;10.40;99.90;;;;;;5060862;28;19913;-77
2022/10/07 03:25:16;;;;;;;;;;;10.30;99.90;;;;;;5058564;28;19921;-78
2022/10/07 03:27:42;;;;;;;;;;;10.20;99.90;;;;;;5061200;28;19915;-77
2022/10/07 03:30:08;;;;;;;;;;;10.10;99.90;;;;;;5058380;28;20007;-76
2022/10/07 03:32:33;;;;;;;;;;;10.10;99.90;;;;;;5055823;28;19916;-77
2022/10/07 03:34:59;;;;;;;;;;;10.00;99.90;;;;;;5068590;28;19917;-77
2022/10/07 03:37:25;;;;;;;;;;;10.10;99.90;;;;;;5063136;28;19928;-77
2022/10/07 03:39:52;;;;;;;;;;;10.20;99.90;;;;;;5061177;28;20007;-78
2022/10/07 03:42:18;;;;;;;;;;;10.40;99.90;;;;;;5062449;28;19924;-77
2022/10/07 03:44:44;;;;;;;;;;;10.50;99.90;;;;;;5066060;28;19936;-78
2022/10/07 03:47:10;;;;;;;;;;;10.60;99.90;;;;;;5059232;28;19920;-78
2022/10/07 03:49:35;;;;;;;;;;;10.80;99.90;;;;;;5053413;28;20402;-77
2022/10/07 03:52:01;;;;;;;;;;;10.90;99.90;;;;;;5059972;28;19970;-78
2022/10/07 03:54:27;;;;;;;;;;;11.00;99.90;;;;;;5060801;28;19917;-78
2022/10/07 03:56:53;;;;;;;;;;;11.00;99.90;;;;;;5058384;28;20033;-78
2022/10/07 03:59:18;;;;;;;;;;;11.20;99.90;;;;;;5065971;28;19923;-78
2022/10/07 04:01:44;;;;;;;;;;;11.20;99.90;;;;;;5059171;28;19924;-78
2022/10/07 04:04:10;;;;;;;;;;;11.20;99.90;;;;;;5054172;28;19939;-77
2022/10/07 04:06:37;;;;;;;;;;;11.30;99.90;;;;;;5053194;28;19928;-77
2022/10/07 04:09:04;;;;;;;;;;;11.40;99.90;;;;;;5059628;28;20394;-77
2022/10/07 04:11:29;;;;;;;;;;;11.30;99.90;;;;;;5055352;28;19924;-77
2022/10/07 04:13:55;;;;;;;;;;;11.40;99.90;;;;;;5068907;28;19926;-77
2022/10/07 04:16:21;;;;;;;;;;;11.40;99.90;;;;;;5056760;28;19918;-77
2022/10/07 04:18:47;;;;;;;;;;;11.50;99.90;;;;;;5070672;28;19917;-77
2022/10/07 04:21:12;;;;;;;;;;;11.50;99.90;;;;;;5062696;28;20321;-78
2022/10/07 04:23:39;;;;;;;;;;;11.50;99.90;;;;;;5066564;28;19919;-78
2022/10/07 04:26:08;;;;;;;;;;;11.70;99.90;;;;;;5055887;28;19960;-77
2022/10/07 04:28:34;;;;;;;;;;;11.70;99.90;;;;;;5069485;28;19924;-78
2022/10/07 04:31:02;;;;;;;;;;;11.70;99.90;;;;;;5059327;28;19977;-77
2022/10/07 04:33:28;;;;;;;;;;;11.80;99.90;;;;;;5060881;28;20417;-78
2022/10/07 04:35:54;;;;;;;;;;;11.80;99.90;;;;;;5070063;28;19925;-77
2022/10/07 04:38:19;;;;;;;;;;;11.90;99.90;;;;;;5065501;28;19913;-77
2022/10/07 04:40:46;;;;;;;;;;;11.90;99.90;;;;;;5054535;28;19917;-78
2022/10/07 04:43:19;;;;;;;;;;;11.70;99.90;;;;;;5053598;28;20341;-78
2022/10/07 04:45:45;;;;;;;;;;;12.00;99.90;;;;;;5059230;28;19925;-80
2022/10/07 04:48:11;;;;;;;;;;;12.00;99.90;;;;;;5065309;28;19940;-79
2022/10/07 04:50:37;;;;;;;;;;;12.10;99.90;;;;;;5073649;28;19924;-80
2022/10/07 04:53:06;;;;;;;;;;;12.00;99.90;;;;;;5060365;28;19913;-78
2022/10/07 04:55:38;;;;;;;;;;;11.80;99.90;;;;;;5062753;28;19942;-79
2022/10/07 04:58:04;;;;;;;;;;;12.10;99.90;;;;;;5071178;28;20015;-80
2022/10/07 05:00:30;;;;;;;;;;;12.10;99.90;;;;;;5058945;28;19966;-79
2022/10/07 05:02:56;;;;;;;;;;;12.00;99.90;;;;;;5061172;28;19941;-80
2022/10/07 05:05:22;;;;;;;;;;;12.00;99.90;;;;;;5061245;28;20278;-79
2022/10/07 05:07:50;;;;;;;;;;;11.90;99.90;;;;;;5059907;28;19944;-79
2022/10/07 05:10:16;;;;;;;;;;;12.00;99.90;;;;;;5061076;28;19916;-79
2022/10/07 05:12:42;;;;;;;;;;;12.00;99.90;;;;;;5058415;28;20279;-80
2022/10/07 05:15:08;;;;;;;;;;;12.10;99.90;;;;;;5059188;28;20365;-78
2022/10/07 05:17:34;;;;;;;;;;;12.10;99.90;;;;;;5055268;28;19935;-78
2022/10/07 05:19:59;;;;;;;;;;;12.00;99.90;;;;;;5053295;28;19936;-79
2022/10/07 05:22:25;;;;;;;;;;;12.10;99.90;;;;;;5058583;28;20488;-78
2022/10/07 05:24:50;;;;;;;;;;;12.00;99.90;;;;;;5049744;28;19917;-80
2022/10/07 05:27:16;;;;;;;;;;;12.20;99.90;;;;;;5051169;28;20369;-81
2022/10/07 05:29:41;;;;;;;;;;;12.20;99.90;;;;;;5059262;28;20382;-80
2022/10/07 05:32:07;;;;;;;;;;;12.20;99.90;;;;;;5057633;28;19924;-80
2022/10/07 05:34:32;;;;;;;;;;;12.20;99.90;;;;;;5070995;28;19969;-80
2022/10/07 05:36:58;;;;;;;;;;;12.10;99.90;;;;;;5061360;28;19912;-80
2022/10/07 05:39:24;;;;;;;;;;;12.10;99.90;;;;;;5074931;28;19921;-79
2022/10/07 05:41:49;;;;;;;;;;;12.20;99.90;;;;;;5062049;28;19928;-80
2022/10/07 05:44:15;;;;;;;;;;;12.30;99.90;;;;;;5070723;28;19939;-80
2022/10/07 05:46:40;;;;;;;;;;;12.20;99.80;;;;;;5060812;28;19917;-78
2022/10/07 05:49:06;;;;;;;;;;;12.20;99.90;;;;;;5063069;28;19913;-79
2022/10/07 05:51:31;;;;;;;;;;;12.20;99.90;;;;;;5068583;28;19920;-78
2022/10/07 05:53:57;;;;;;;;;;;12.20;99.90;;;;;;5059753;28;19913;-78
2022/10/07 05:56:23;;;;;;;;;;;12.30;99.90;;;;;;5059945;28;20331;-79
2022/10/07 05:58:49;;;;;;;;;;;12.30;99.90;;;;;;5058634;28;20503;-78
2022/10/07 06:01:15;;;;;;;;;;;12.40;99.90;;;;;;5069987;28;19957;-79
2022/10/07 06:03:42;;;;;;;;;;;12.60;99.50;;;;;;5065502;28;19913;-79
2022/10/07 06:06:08;;;;;;;;;;;12.80;98.50;;;;;;5072344;28;19920;-78
2022/10/07 06:08:34;;;;;;;;;;;12.60;98.40;;;;;;5071115;28;19912;-78
2022/10/07 06:13:48;;;;;;;;;;;12.70;98.20;;;;;;5077484;28;20029;-78
2022/10/07 06:16:14;;;;;;;;;;;12.30;98.90;;;;;;5081098;28;19928;-78
2022/10/07 06:18:40;;;;;;;;;;;12.10;99.90;;;;;;5078812;28;19916;-78
2022/10/07 06:21:05;;;;;;;;;;;12.60;99.20;;;;;;5085750;28;20390;-79
2022/10/07 06:23:31;;;;;;;;;;;12.60;98.20;;;;;;5082693;28;20252;-78
2022/10/07 06:25:58;;;;;;;;;;;12.70;98.40;;;;;;5077473;28;20317;-79
2022/10/07 06:28:24;;;;;;;;;;;12.90;98.00;;;;;;5086798;28;19979;-78
2022/10/07 06:30:50;;;;;;;;;;;12.90;97.40;;;;;;5072174;28;20015;-78
2022/10/07 06:33:16;;;;;;;;;;;12.90;97.50;;;;;;5060675;28;19964;-79
2022/10/07 06:35:42;;;;;;;;;;;12.80;98.20;;;;;;5062529;28;19913;-78
2022/10/07 06:38:07;;;;;;;;;;;12.90;97.50;;;;;;5055507;28;20397;-78
2022/10/07 06:40:33;;;;;;;;;;;12.90;97.80;;;;;;5057739;28;19913;-78
2022/10/07 06:42:58;;;;;;;;;;;13.10;97.90;;;;;;5063762;28;20354;-79
2022/10/07 06:45:24;;;;;;;;;;;13.10;97.40;;;;;;5055344;28;19929;-79
2022/10/07 06:47:50;;;;;;;;;;;13.20;97.30;;;;;;5046974;28;19927;-78
2022/10/07 06:50:16;;;;;;;;;;;13.10;97.30;;;;;;5054209;28;19951;-78
2022/10/07 06:52:41;;;;;;;;;;;13.30;97.30;;;;;;5064915;28;19913;-78
2022/10/07 06:55:07;;;;;;;;;;;13.20;97.10;;;;;;5059695;28;19925;-79
2022/10/07 06:57:34;;;;;;;;;;;13.40;96.90;;;;;;5057409;28;19925;-78
2022/10/07 07:00:00;;;;;;;;;;;13.20;96.80;;;;;;5064803;28;19912;-78
2022/10/07 07:02:26;;;;;;;;;;;13.30;97.20;;;;;;5059219;28;20007;-78
2022/10/07 07:04:53;;;;;;;;;;;13.60;96.90;;;;;;5068044;28;20131;-78
2022/10/07 07:07:20;;;;;;;;;;;13.50;97.10;;;;;;5059085;28;20342;-78
2022/10/07 07:09:46;;;;;;;;;;;13.60;96.10;;;;;;5055883;28;19917;-78
2022/10/07 07:12:11;;;;;;;;;;;13.70;95.80;;;;;;5046272;28;20433;-79
2022/10/07 07:14:37;;;;;;;;;;;13.60;95.90;;;;;;5065575;28;19978;-79
2022/10/07 07:17:02;;;;;;;;;;;13.70;96.30;;;;;;5055654;28;19930;-79
2022/10/07 07:19:28;;;;;;;;;;;13.70;95.40;;;;;;5059691;28;19917;-79
2022/10/07 07:21:53;;;;;;;;;;;13.70;95.30;;;;;;5061962;28;19920;-79
2022/10/07 07:24:19;;;;;;;;;;;13.80;95.00;;;;;;5061075;28;19921;-78
2022/10/07 07:26:45;;;;;;;;;;;13.80;94.70;;;;;;5050809;28;19920;-79
2022/10/07 07:29:11;;;;;;;;;;;13.80;95.20;;;;;;5062255;28;19912;-79
2022/10/07 07:31:37;;;;;;;;;;;13.90;95.10;;;;;;5063051;28;19909;-79
2022/10/07 07:34:05;;;;;;;;;;;13.90;94.40;;;;;;5079675;28;19931;-78
2022/10/07 07:36:34;;;;;;;;;;;13.90;93.60;;;;;;5058258;28;19920;-77
2022/10/07 07:39:00;;;;;;;;;;;13.90;93.10;;;;;;5053668;28;19946;-78
2022/10/07 07:41:28;;;;;;;;;;;13.60;94.40;;;;;;5050448;28;19932;-79
2022/10/07 07:43:56;;;;;;;;;;;13.60;94.50;;;;;;5056284;28;19925;-78
2022/10/07 07:46:22;;;;;;;;;;;13.50;95.30;;;;;;5057370;28;19952;-79
2022/10/07 07:48:50;;;;;;;;;;;13.70;94.90;;;;;;5049109;28;20270;-78
2022/10/07 07:51:17;;;;;;;;;;;13.50;95.20;;;;;;5067920;28;20023;-78
2022/10/07 07:53:44;;;;;;;;;;;13.50;94.90;;;;;;5059540;28;19960;-78
2022/10/07 07:56:10;;;;;;;;;;;13.40;95.50;;;;;;5051696;28;19923;-78
2022/10/07 07:58:36;;;;;;;;;;;13.50;95.00;;;;;;5063354;28;20259;-78
2022/10/07 08:01:06;;;;;;;;;;;13.50;94.90;;;;;;5052938;28;20374;-78
2022/10/07 08:03:32;;;;;;;;;;;13.60;94.80;;;;;;5049408;28;19913;-78
2022/10/07 08:06:03;;;;;;;;;;;13.70;94.00;;;;;;5059872;28;20015;-78
2022/10/07 08:08:29;;;;;;;;;;;13.60;93.80;;;;;;5056210;28;19920;-78
2022/10/07 08:10:55;;;;;;;;;;;13.60;94.10;;;;;;5056592;28;20324;-79
2022/10/07 08:13:20;;;;;;;;;;;13.70;94.50;;;;;;5058691;28;19921;-78
2022/10/07 08:15:46;;;;;;;;;;;13.60;93.50;;;;;;5059291;28;19988;-78
2022/10/07 08:18:11;;;;;;;;;;;13.80;93.90;;;;;;5053512;28;20012;-78
2022/10/07 08:20:37;;;;;;;;;;;13.90;93.80;;;;;;5063668;28;19916;-78
2022/10/07 08:23:03;;;;;;;;;;;14.10;93.00;;;;;;5054710;28;20345;-78
2022/10/07 08:25:29;;;;;;;;;;;14.20;92.60;;;;;;5056767;28;19916;-78
2022/10/07 08:27:54;;;;;;;;;;;14.30;92.10;;;;;;5048138;28;19916;-78
2022/10/07 08:30:20;;;;;;;;;;;14.50;91.80;;;;;;5057866;28;20391;-78
2022/10/07 08:32:45;;;;;;;;;;;14.70;90.80;;;;;;5047268;28;20363;-79
2022/10/07 08:35:11;;;;;;;;;;;14.70;91.10;;;;;;5046162;28;20020;-78
2022/10/07 08:37:36;;;;;;;;;;;14.70;91.00;;;;;;5043402;28;20654;-78
2022/10/07 08:40:02;;;;;;;;;;;14.50;89.70;;;;;;5042866;28;20390;-78
2022/10/07 08:42:38;;;;;;;;;;;14.40;90.80;;;;;;5049333;28;19924;-78
2022/10/07 08:45:07;;;;;;;;;;;14.50;90.60;;;;;;5046362;28;19924;-78
2022/10/07 08:47:37;;;;;;;;;;;14.70;90.40;;;;;;5048093;28;19913;-79
2022/10/07 08:50:06;;;;;;;;;;;14.50;91.20;;;;;;5064926;28;19917;-79
2022/10/07 08:52:35;;;;;;;;;;;14.50;90.20;;;;;;5047403;28;19921;-79
2022/10/07 08:55:00;;;;;;;;;;;14.60;90.50;;;;;;5044742;28;20297;-79
2022/10/07 08:57:37;;;;;;;;;;;14.30;90.50;;;;;;5044808;28;20375;-78
2022/10/07 09:00:07;;;;;;;;;;;14.20;90.90;;;;;;5045789;28;19912;-79
2022/10/07 09:02:55;;;;;;;;;;;14.30;90.90;;;;;;5091245;28;19920;-79
2022/10/07 09:05:26;;;;;;;;;;;14.30;90.50;;;;;;5083802;28;19927;-81
2022/10/07 09:08:12;;;;;;;;;;;14.10;91.40;;;;;;5082046;28;19916;-79
2022/10/07 09:10:43;;;;;;;;;;;14.10;91.10;;;;;;5071725;28;19920;-79
2022/10/07 09:13:13;;;;;;;;;;;14.00;91.50;;;;;;5083612;28;20256;-79
2022/10/07 09:15:59;;;;;;;;;;;14.10;91.70;;;;;;5077365;28;19916;-78
2022/10/07 09:18:38;;;;;;;;;;;14.50;90.90;;;;;;5072583;28;19939;-79
2022/10/07 09:21:06;;;;;;;;;;;14.50;90.40;;;;;;5072670;28;20023;-79
2022/10/07 09:23:35;;;;;;;;;;;14.60;90.70;;;;;;5071693;28;19960;-78
2022/10/07 09:26:04;;;;;;;;;;;14.70;90.60;;;;;;5076670;28;19920;-78
2022/10/07 09:28:31;;;;;;;;;;;14.60;90.40;;;;;;5080507;28;19917;-78
2022/10/07 09:30:57;;;;;;;;;;;14.40;90.60;;;;;;5069583;28;20463;-78
2022/10/07 09:33:23;;;;;;;;;;;14.50;90.50;;;;;;5054499;28;19917;-78
2022/10/07 09:35:56;;;;;;;;;;;14.50;90.40;;;;;;5058540;28;19958;-78
2022/10/07 09:38:29;;;;;;;;;;;14.50;90.20;;;;;;5053392;28;19920;-78
2022/10/07 09:41:16;;;;;;;;;;;14.60;90.00;;;;;;5053241;28;20416;-78
2022/10/07 09:43:52;;;;;;;;;;;14.50;90.10;;;;;;5055550;28;19963;-78
2022/10/07 09:46:37;;;;;;;;;;;14.40;90.70;;;;;;5032782;28;19921;-79
2022/10/07 09:49:04;;;;;;;;;;;14.10;90.40;;;;;;5031432;28;19975;-79
2022/10/07 09:51:31;;;;;;;;;;;14.30;90.80;;;;;;5031182;28;19921;-79
2022/10/07 09:54:01;;;;;;;;;;;14.30;91.10;;;;;;5033402;28;20014;-79
2022/10/07 09:56:43;;;;;;;;;;;14.30;90.90;;;;;;5033442;28;19916;-79
2022/10/07 09:59:18;;;;;;;;;;;14.40;90.60;;;;;;5037267;28;19913;-79
2022/10/07 10:01:48;;;;;;;;;;;14.40;90.00;;;;;;5033286;28;19944;-79
2022/10/07 10:04:15;;;;;;;;;;;14.50;90.40;;;;;;5035242;28;20007;-79
2022/10/07 10:06:44;;;;;;;;;;;14.60;89.60;;;;;;5032569;28;19921;-78
2022/10/07 10:09:10;;;;;;;;;;;14.70;89.80;;;;;;5025675;28;20043;-79
2022/10/07 10:11:36;;;;;;;;;;;14.50;88.90;;;;;;5035474;28;20005;-78
2022/10/07 10:14:21;;;;;;;;;;;14.50;90.30;;;;;;5095339;28;19972;-78
2022/10/07 10:16:47;;;;;;;;;;;14.40;90.00;;;;;;5030751;28;19925;-79
2022/10/07 10:19:22;;;;;;;;;;;14.40;90.40;;;;;;5038160;28;19924;-78
2022/10/07 10:21:52;;;;;;;;;;;14.30;90.60;;;;;;5040436;28;19913;-78
2022/10/07 10:26:24;;;;;;;;;;;14.20;91.10;;;;;;5037427;28;20371;-81
2022/10/07 10:27:03;;;;;;;;;;;14.30;90.50;;;;;;5037015;28;19921;-79
2022/10/07 10:29:31;;;;;;;;;;;14.30;90.20;;;;;;5040912;28;19917;-79
2022/10/07 10:32:00;;;;;;;;;;;14.20;91.20;;;;;;5036119;28;19929;-79
2022/10/07 10:34:28;;;;;;;;;;;14.40;90.50;;;;;;5040140;28;20405;-78
2022/10/07 10:36:59;;;;;;;;;;;14.40;90.60;;;;;;5038010;28;19952;-78
2022/10/07 10:39:43;;;;;;;;;;;14.40;90.90;;;;;;5038511;28;19924;-78
2022/10/07 10:42:13;;;;;;;;;;;14.30;91.00;;;;;;5040152;28;19920;-78
2022/10/07 10:44:38;;;;;;;;;;;14.30;90.30;;;;;;5049268;28;19917;-78
2022/10/07 10:47:13;;;;;;;;;;;14.30;90.80;;;;;;5059204;28;19970;-78
2022/10/07 10:49:44;;;;;;;;;;;14.30;90.80;;;;;;5056102;28;19920;-79
2022/10/07 10:52:10;;;;;;;;;;;14.20;90.70;;;;;;5055367;28;20003;-79
2022/10/07 10:54:55;;;;;;;;;;;14.00;91.20;;;;;;5060040;28;19967;-79
2022/10/07 10:57:23;;;;;;;;;;;14.00;91.40;;;;;;5060995;28;19962;-78
2022/10/07 10:59:59;;;;;;;;;;;14.00;92.00;;;;;;5062619;28;19950;-79
2022/10/07 11:02:39;;;;;;;;;;;14.20;91.70;;;;;;5057905;28;19929;-79
2022/10/07 11:05:23;;;;;;;;;;;14.10;91.30;;;;;;5064923;28;19917;-79
2022/10/07 11:07:48;;;;;;;;;;;14.10;91.10;;;;;;5061750;28;20278;-78
2022/10/07 11:10:17;;;;;;;;;;;14.00;91.00;;;;;;5060022;28;19917;-79
2022/10/07 11:12:45;;;;;;;;;;;14.10;91.40;;;;;;5054655;28;19934;-79
2022/10/07 11:15:25;;;;;;;;;;;14.30;90.60;;;;;;5061231;28;20370;-79
2022/10/07 11:17:53;;;;;;;;;;;14.30;90.30;;;;;;5054922;28;19970;-78
2022/10/07 11:20:20;;;;;;;;;;;14.10;90.30;;;;;;5069519;28;19956;-78
2022/10/07 11:22:49;;;;;;;;;;;14.30;91.00;;;;;;5065295;28;19921;-78
2022/10/07 11:25:27;;;;;;;;;;;14.50;90.10;;;;;;5057867;28;19913;-78
2022/10/07 11:27:54;;;;;;;;;;;14.50;89.00;;;;;;5059466;28;19958;-79
2022/10/07 11:30:21;;;;;;;;;;;14.50;88.80;;;;;;5056879;28;19924;-78
2022/10/07 11:33:05;;;;;;;;;;;14.50;88.70;;;;;;5059702;28;19920;-78
2022/10/07 11:35:31;;;;;;;;;;;14.60;88.10;;;;;;5054163;28;19917;-79
2022/10/07 11:38:08;;;;;;;;;;;14.60;88.80;;;;;;5061645;28;19996;-78
2022/10/07 11:40:40;;;;;;;;;;;14.70;89.00;;;;;;5053443;28;19927;-78
2022/10/07 11:43:09;;;;;;;;;;;14.90;87.30;;;;;;5067789;28;19937;-78
2022/10/07 11:45:39;;;;;;;;;;;14.80;86.90;;;;;;5056032;28;20023;-78
2022/10/07 11:48:11;;;;;;;;;;;14.80;86.40;;;;;;5062166;28;19913;-78
2022/10/07 11:50:43;;;;;;;;;;;14.70;86.70;;;;;;5066414;28;19931;-78
2022/10/07 11:53:15;;;;;;;;;;;14.60;87.20;;;;;;5050404;28;20291;-79
2022/10/07 11:55:43;;;;;;;;;;;14.70;87.30;;;;;;5059782;28;19916;-79
2022/10/07 11:58:19;;;;;;;;;;;14.80;87.10;;;;;;5062763;28;20649;-77
2022/10/07 12:00:44;;;;;;;;;;;14.70;86.20;;;;;;5061747;28;19920;-78
2022/10/07 12:03:10;;;;;;;;;;;14.90;87.20;;;;;;5075357;28;19916;-78
2022/10/07 12:05:35;;;;;;;;;;;15.00;87.20;;;;;;5083437;28;19912;-78
2022/10/07 12:08:17;;;;;;;;;;;15.10;85.60;;;;;;5078362;28;19972;-78
2022/10/07 12:10:42;;;;;;;;;;;14.90;84.90;;;;;;5074047;28;19916;-78
2022/10/07 12:13:11;;;;;;;;;;;14.70;85.30;;;;;;5084222;28;19920;-78
2022/10/07 12:15:38;;;;;;;;;;;14.80;85.40;;;;;;5081862;28;19913;-78
2022/10/07 12:18:04;;;;;;;;;;;14.90;84.90;;;;;;5078996;28;19920;-78
2022/10/07 12:20:41;;;;;;;;;;;15.00;87.30;;;;;;5085134;28;19920;-79
2022/10/07 12:23:17;;;;;;;;;;;15.10;86.00;;;;;;5078732;28;20440;-78
2022/10/07 12:25:47;;;;;;;;;;;15.20;84.40;;;;;;5078093;28;19920;-78
2022/10/07 12:28:17;;;;;;;;;;;15.30;84.70;;;;;;5085642;28;19920;-78
2022/10/07 12:30:53;;;;;;;;;;;15.20;83.60;;;;;;5081396;28;20018;-78
2022/10/07 12:33:42;;;;;;;;;;;15.10;84.50;;;;;;5076102;28;19946;-79
2022/10/07 12:36:23;;;;;;;;;;;15.00;85.70;;;;;;5078597;28;19917;-77
2022/10/07 12:38:55;;;;;;;;;;;15.00;85.70;;;;;;5079990;28;19916;-78
2022/10/07 12:41:32;;;;;;;;;;;15.10;86.50;;;;;;5075563;28;19916;-78
2022/10/07 12:44:16;;;;;;;;;;;15.00;85.20;;;;;;5075963;28;19949;-78
2022/10/07 12:46:48;;;;;;;;;;;15.00;85.50;;;;;;5071129;28;19916;-81
2022/10/07 12:49:13;;;;;;;;;;;15.20;86.20;;;;;;5069813;28;20397;-79
2022/10/07 12:51:39;;;;;;;;;;;15.20;84.40;;;;;;5074922;28;20017;-78
2022/10/07 12:54:14;;;;;;;;;;;15.30;84.70;;;;;;5099181;28;19928;-78
2022/10/07 12:56:41;;;;;;;;;;;15.40;84.20;;;;;;5076059;28;20400;-79
2022/10/07 13:02:00;;;;;;;;;;;15.50;83.60;;;;;;5060064;28;20008;-77
2022/10/07 13:04:37;;;;;;;;;;;15.50;84.90;;;;;;5073496;28;20463;-77
2022/10/07 13:07:26;;;;;;;;;;;15.40;84.80;;;;;;5075929;28;19916;-79
2022/10/07 13:09:52;;;;;;;;;;;15.50;84.10;;;;;;5050058;28;20629;-79
2022/10/07 13:12:20;;;;;;;;;;;15.20;82.80;;;;;;5076353;28;20026;-78
2022/10/07 13:14:45;;;;;;;;;;;15.10;83.30;;;;;;5083911;28;19971;-80
2022/10/07 13:17:17;;;;;;;;;;;15.10;85.00;;;;;;5076196;28;20724;-78
2022/10/07 13:20:01;;;;;;;;;;;15.10;84.80;;;;;;5080599;28;20022;-78
2022/10/07 13:22:27;;;;;;;;;;;15.10;85.10;;;;;;5073979;28;19971;-78
2022/10/07 13:24:54;;;;;;;;;;;15.20;84.90;;;;;;5066498;28;20047;-78
2022/10/07 13:27:24;;;;;;;;;;;15.40;86.00;;;;;;5076943;28;20003;-78
2022/10/07 13:29:51;;;;;;;;;;;15.40;84.10;;;;;;5071904;28;19916;-79
2022/10/07 13:32:21;;;;;;;;;;;15.50;83.40;;;;;;5069224;28;19995;-80
2022/10/07 13:34:47;;;;;;;;;;;15.40;83.30;;;;;;5072466;28;19977;-78
2022/10/07 13:37:28;;;;;;;;;;;15.50;82.80;;;;;;5073271;28;19924;-79
2022/10/07 13:39:54;;;;;;;;;;;15.80;83.20;;;;;;5074088;28;19912;-77
2022/10/07 13:42:24;;;;;;;;;;;15.80;82.50;;;;;;5073216;28;19950;-78
2022/10/07 13:44:49;;;;;;;;;;;15.90;81.40;;;;;;5073721;28;20003;-78
2022/10/07 13:47:18;;;;;;;;;;;15.90;82.60;;;;;;5075024;28;19983;-79
2022/10/07 13:49:46;;;;;;;;;;;16.00;80.90;;;;;;5063409;28;19923;-79
2022/10/07 13:52:19;;;;;;;;;;;15.90;82.60;;;;;;5074111;28;19942;-78
2022/10/07 13:54:51;;;;;;;;;;;15.90;81.50;;;;;;5075021;28;20372;-79
2022/10/07 13:57:18;;;;;;;;;;;16.00;81.50;;;;;;5075341;28;19916;-79
2022/10/07 13:59:44;;;;;;;;;;;15.90;81.40;;;;;;5082827;28;20447;-79
2022/10/07 14:02:14;;;;;;;;;;;15.90;81.40;;;;;;5078544;28;20452;-78
2022/10/07 14:04:59;;;;;;;;;;;16.10;80.20;;;;;;5077722;28;19921;-79
2022/10/07 14:07:25;;;;;;;;;;;16.20;80.40;;;;;;5072967;28;20017;-79
2022/10/07 14:09:57;;;;;;;;;;;16.30;80.60;;;;;;5075005;28;19924;-79
2022/10/07 14:12:31;;;;;;;;;;;16.40;78.90;;;;;;5082372;28;19958;-80
2022/10/07 14:15:01;;;;;;;;;;;16.50;78.00;;;;;;5072797;28;19913;-79
2022/10/07 14:17:42;;;;;;;;;;;16.50;78.30;;;;;;5072475;28;19916;-79
2022/10/07 14:20:24;;;;;;;;;;;16.50;78.00;;;;;;5079221;28;19920;-79
2022/10/07 14:22:52;;;;;;;;;;;16.70;76.70;;;;;;5073161;28;20380;-79
2022/10/07 14:25:17;;;;;;;;;;;16.80;77.10;;;;;;5071938;28;20400;-79
2022/10/07 14:27:43;;;;;;;;;;;16.80;76.70;;;;;;5077429;28;19916;-79
2022/10/07 14:30:28;;;;;;;;;;;16.90;75.90;;;;;;5072124;28;20001;-79
2022/10/07 14:36:08;;;;;;;;;;;17.40;74.80;;;;;;5084526;28;20015;-79